sensor_id;sensor_type;location;lat;lon;timestamp;temperature;humidity
23283;DHT22;11810;51.178;3.878;2022-09-09T00:09:18;15.00;99.90
23283;DHT22;11810;51.178;3.878;2022-09-09T00:12:10;15.20;99.90
23283;DHT22;11810;51.178;3.878;2022-09-09T00:14:58;15.20;99.90
23283;DHT22;11810;51.178;3.878;2022-09-09T00:20:32;15.30;99.90
23283;DHT22;11810;51.178;3.878;2022-09-09T00:23:04;15.30;99.90
23283;DHT22;11810;51.178;3.878;2022-09-09T00:25:46;15.20;99.90
23283;DHT22;11810;51.178;3.878;2022-09-09T00:28:24;15.20;99.90
23283;DHT22;11810;51.178;3.878;2022-09-09T00:30:51;15.30;99.90
23283;DHT22;11810;51.178;3.878;2022-09-09T00:33:20;15.40;99.90
23283;DHT22;11810;51.178;3.878;2022-09-09T00:35:54;15.50;99.90
23283;DHT22;11810;51.178;3.878;2022-09-09T00:38:35;15.50;99.90
23283;DHT22;11810;51.178;3.878;2022-09-09T00:41:11;15.50;99.90
23283;DHT22;11810;51.178;3.878;2022-09-09T00:43:41;15.50;99.90
23283;DHT22;11810;51.178;3.878;2022-09-09T00:57:19;15.20;99.90
23283;DHT22;11810;51.178;3.878;2022-09-09T01:00:31;15.10;99.90
23283;DHT22;11810;51.178;3.878;2022-09-09T01:03:40;15.00;99.90
23283;DHT22;11810;51.178;3.878;2022-09-09T01:06:34;15.10;99.90
23283;DHT22;11810;51.178;3.878;2022-09-09T01:09:18;15.00;99.90
23283;DHT22;11810;51.178;3.878;2022-09-09T01:14:51;15.10;99.90
23283;DHT22;11810;51.178;3.878;2022-09-09T01:17:20;15.10;99.90
23283;DHT22;11810;51.178;3.878;2022-09-09T01:20:08;15.00;99.90
23283;DHT22;11810;51.178;3.878;2022-09-09T01:28:26;15.20;99.90
23283;DHT22;11810;51.178;3.878;2022-09-09T01:30:55;15.00;99.90
23283;DHT22;11810;51.178;3.878;2022-09-09T01:33:22;15.00;99.90
23283;DHT22;11810;51.178;3.878;2022-09-09T01:35:59;14.90;99.90
23283;DHT22;11810;51.178;3.878;2022-09-09T01:38:28;14.90;99.90
23283;DHT22;11810;51.178;3.878;2022-09-09T01:40:54;14.80;99.90
23283;DHT22;11810;51.178;3.878;2022-09-09T01:43:21;14.70;99.90
23283;DHT22;11810;51.178;3.878;2022-09-09T01:45:51;14.70;99.90
23283;DHT22;11810;51.178;3.878;2022-09-09T01:48:19;14.60;99.90
23283;DHT22;11810;51.178;3.878;2022-09-09T01:50:45;14.60;99.90
23283;DHT22;11810;51.178;3.878;2022-09-09T01:53:12;14.60;99.90
23283;DHT22;11810;51.178;3.878;2022-09-09T01:55:41;14.70;99.90
23283;DHT22;11810;51.178;3.878;2022-09-09T02:00:38;14.70;99.90
23283;DHT22;11810;51.178;3.878;2022-09-09T02:03:27;14.60;99.90
23283;DHT22;11810;51.178;3.878;2022-09-09T02:06:00;14.60;99.90
23283;DHT22;11810;51.178;3.878;2022-09-09T02:08:42;14.70;99.90
23283;DHT22;11810;51.178;3.878;2022-09-09T02:11:15;14.70;99.90
23283;DHT22;11810;51.178;3.878;2022-09-09T02:13:44;14.70;99.90
23283;DHT22;11810;51.178;3.878;2022-09-09T02:16:35;14.60;99.90
23283;DHT22;11810;51.178;3.878;2022-09-09T02:19:17;14.60;99.90
23283;DHT22;11810;51.178;3.878;2022-09-09T02:21:50;14.60;99.90
23283;DHT22;11810;51.178;3.878;2022-09-09T02:24:16;14.50;99.90
23283;DHT22;11810;51.178;3.878;2022-09-09T02:26:44;14.50;99.90
23283;DHT22;11810;51.178;3.878;2022-09-09T02:29:15;14.60;99.90
23283;DHT22;11810;51.178;3.878;2022-09-09T02:31:42;14.50;99.90
23283;DHT22;11810;51.178;3.878;2022-09-09T02:34:10;14.60;99.90
23283;DHT22;11810;51.178;3.878;2022-09-09T02:36:40;14.60;99.90
23283;DHT22;11810;51.178;3.878;2022-09-09T02:39:08;14.60;99.90
23283;DHT22;11810;51.178;3.878;2022-09-09T02:41:37;14.60;99.90
23283;DHT22;11810;51.178;3.878;2022-09-09T02:44:15;14.70;99.90
23283;DHT22;11810;51.178;3.878;2022-09-09T02:49:28;14.90;99.90
23283;DHT22;11810;51.178;3.878;2022-09-09T02:52:07;15.00;99.90
23283;DHT22;11810;51.178;3.878;2022-09-09T02:54:39;14.90;99.90
23283;DHT22;11810;51.178;3.878;2022-09-09T02:57:19;14.90;99.90
23283;DHT22;11810;51.178;3.878;2022-09-09T02:59:47;15.00;99.90
23283;DHT22;11810;51.178;3.878;2022-09-09T03:02:14;15.00;99.90
23283;DHT22;11810;51.178;3.878;2022-09-09T03:04:40;15.00;99.90
23283;DHT22;11810;51.178;3.878;2022-09-09T03:07:09;15.10;99.90
23283;DHT22;11810;51.178;3.878;2022-09-09T03:09:35;15.10;99.90
23283;DHT22;11810;51.178;3.878;2022-09-09T03:12:01;15.10;99.90
23283;DHT22;11810;51.178;3.878;2022-09-09T03:14:29;15.10;99.90
23283;DHT22;11810;51.178;3.878;2022-09-09T03:16:56;15.00;99.90
23283;DHT22;11810;51.178;3.878;2022-09-09T03:19:23;15.00;99.90
23283;DHT22;11810;51.178;3.878;2022-09-09T03:21:50;14.90;99.90
23283;DHT22;11810;51.178;3.878;2022-09-09T03:24:16;14.90;99.90
23283;DHT22;11810;51.178;3.878;2022-09-09T03:26:42;14.80;99.90
23283;DHT22;11810;51.178;3.878;2022-09-09T03:29:12;14.80;99.90
23283;DHT22;11810;51.178;3.878;2022-09-09T03:31:39;14.70;99.90
23283;DHT22;11810;51.178;3.878;2022-09-09T03:34:05;14.80;99.90
23283;DHT22;11810;51.178;3.878;2022-09-09T03:36:31;14.80;99.90
23283;DHT22;11810;51.178;3.878;2022-09-09T03:38:57;15.00;99.90
23283;DHT22;11810;51.178;3.878;2022-09-09T03:41:24;14.90;99.90
23283;DHT22;11810;51.178;3.878;2022-09-09T03:43:50;14.90;99.90
23283;DHT22;11810;51.178;3.878;2022-09-09T03:46:21;15.00;99.90
23283;DHT22;11810;51.178;3.878;2022-09-09T03:48:47;15.10;99.90
23283;DHT22;11810;51.178;3.878;2022-09-09T03:51:13;15.10;99.90
23283;DHT22;11810;51.178;3.878;2022-09-09T03:53:41;15.00;99.90
23283;DHT22;11810;51.178;3.878;2022-09-09T03:56:08;15.00;99.90
23283;DHT22;11810;51.178;3.878;2022-09-09T03:58:35;15.00;99.90
23283;DHT22;11810;51.178;3.878;2022-09-09T04:01:13;15.10;99.90
23283;DHT22;11810;51.178;3.878;2022-09-09T04:03:40;15.10;99.90
23283;DHT22;11810;51.178;3.878;2022-09-09T04:06:07;15.20;99.90
23283;DHT22;11810;51.178;3.878;2022-09-09T04:08:35;15.20;99.90
23283;DHT22;11810;51.178;3.878;2022-09-09T04:11:02;15.20;99.90
23283;DHT22;11810;51.178;3.878;2022-09-09T04:13:36;15.30;99.90
23283;DHT22;11810;51.178;3.878;2022-09-09T04:16:04;15.50;99.90
23283;DHT22;11810;51.178;3.878;2022-09-09T04:18:30;15.50;99.90
23283;DHT22;11810;51.178;3.878;2022-09-09T04:20:57;15.30;99.90
23283;DHT22;11810;51.178;3.878;2022-09-09T04:23:25;15.30;99.90
23283;DHT22;11810;51.178;3.878;2022-09-09T04:25:54;15.30;99.90
23283;DHT22;11810;51.178;3.878;2022-09-09T04:28:22;15.20;99.90
23283;DHT22;11810;51.178;3.878;2022-09-09T04:30:49;15.20;99.90
23283;DHT22;11810;51.178;3.878;2022-09-09T04:33:15;15.20;99.90
23283;DHT22;11810;51.178;3.878;2022-09-09T04:35:47;15.30;99.90
23283;DHT22;11810;51.178;3.878;2022-09-09T04:38:14;15.20;99.90
23283;DHT22;11810;51.178;3.878;2022-09-09T04:40:45;15.20;99.90
23283;DHT22;11810;51.178;3.878;2022-09-09T04:43:12;15.30;99.90
23283;DHT22;11810;51.178;3.878;2022-09-09T04:45:40;15.30;99.90
23283;DHT22;11810;51.178;3.878;2022-09-09T04:48:06;15.30;99.90
23283;DHT22;11810;51.178;3.878;2022-09-09T04:50:32;15.20;99.90
23283;DHT22;11810;51.178;3.878;2022-09-09T04:53:03;15.30;99.90
23283;DHT22;11810;51.178;3.878;2022-09-09T04:55:30;15.40;99.90
23283;DHT22;11810;51.178;3.878;2022-09-09T04:57:57;15.50;99.90
23283;DHT22;11810;51.178;3.878;2022-09-09T05:00:24;15.50;99.90
23283;DHT22;11810;51.178;3.878;2022-09-09T05:02:50;15.60;99.90
23283;DHT22;11810;51.178;3.878;2022-09-09T05:05:16;15.60;99.90
23283;DHT22;11810;51.178;3.878;2022-09-09T05:07:42;15.60;99.90
23283;DHT22;11810;51.178;3.878;2022-09-09T05:10:09;15.50;99.90
23283;DHT22;11810;51.178;3.878;2022-09-09T05:12:36;15.60;99.90
23283;DHT22;11810;51.178;3.878;2022-09-09T05:15:02;15.80;99.90
23283;DHT22;11810;51.178;3.878;2022-09-09T05:17:28;15.70;99.90
23283;DHT22;11810;51.178;3.878;2022-09-09T05:19:54;15.80;99.90
23283;DHT22;11810;51.178;3.878;2022-09-09T05:22:20;15.70;99.90
23283;DHT22;11810;51.178;3.878;2022-09-09T05:24:49;15.80;99.90
23283;DHT22;11810;51.178;3.878;2022-09-09T05:27:19;15.70;99.90
23283;DHT22;11810;51.178;3.878;2022-09-09T05:29:46;15.70;99.90
23283;DHT22;11810;51.178;3.878;2022-09-09T05:32:12;15.70;99.90
23283;DHT22;11810;51.178;3.878;2022-09-09T05:34:39;15.80;99.90
23283;DHT22;11810;51.178;3.878;2022-09-09T05:37:05;15.90;99.90
23283;DHT22;11810;51.178;3.878;2022-09-09T05:39:33;15.90;99.90
23283;DHT22;11810;51.178;3.878;2022-09-09T05:42:01;15.90;99.90
23283;DHT22;11810;51.178;3.878;2022-09-09T05:44:29;16.10;99.90
23283;DHT22;11810;51.178;3.878;2022-09-09T05:46:55;16.10;99.90
23283;DHT22;11810;51.178;3.878;2022-09-09T05:49:21;16.30;99.90
23283;DHT22;11810;51.178;3.878;2022-09-09T05:51:47;16.30;99.90
23283;DHT22;11810;51.178;3.878;2022-09-09T05:54:13;16.40;99.90
23283;DHT22;11810;51.178;3.878;2022-09-09T05:56:41;16.50;99.90
23283;DHT22;11810;51.178;3.878;2022-09-09T05:59:07;16.50;99.90
23283;DHT22;11810;51.178;3.878;2022-09-09T06:01:36;16.50;99.90
23283;DHT22;11810;51.178;3.878;2022-09-09T06:04:02;16.40;99.90
23283;DHT22;11810;51.178;3.878;2022-09-09T06:06:34;16.50;99.90
23283;DHT22;11810;51.178;3.878;2022-09-09T06:09:06;16.50;99.90
23283;DHT22;11810;51.178;3.878;2022-09-09T06:11:36;16.60;99.90
23283;DHT22;11810;51.178;3.878;2022-09-09T06:14:03;16.70;99.90
23283;DHT22;11810;51.178;3.878;2022-09-09T06:16:30;16.80;99.90
23283;DHT22;11810;51.178;3.878;2022-09-09T06:18:58;16.90;99.90
23283;DHT22;11810;51.178;3.878;2022-09-09T06:21:35;16.90;99.90
23283;DHT22;11810;51.178;3.878;2022-09-09T06:24:06;16.90;99.90
23283;DHT22;11810;51.178;3.878;2022-09-09T06:26:35;16.80;99.90
23283;DHT22;11810;51.178;3.878;2022-09-09T06:29:03;16.80;99.90
23283;DHT22;11810;51.178;3.878;2022-09-09T06:31:33;16.90;99.90
23283;DHT22;11810;51.178;3.878;2022-09-09T06:34:00;17.10;99.90
23283;DHT22;11810;51.178;3.878;2022-09-09T06:36:31;17.00;99.90
23283;DHT22;11810;51.178;3.878;2022-09-09T06:38:57;17.00;99.90
23283;DHT22;11810;51.178;3.878;2022-09-09T06:41:26;17.00;99.90
23283;DHT22;11810;51.178;3.878;2022-09-09T06:43:52;17.00;99.90
23283;DHT22;11810;51.178;3.878;2022-09-09T06:46:21;16.90;99.90
23283;DHT22;11810;51.178;3.878;2022-09-09T06:48:53;17.00;99.90
23283;DHT22;11810;51.178;3.878;2022-09-09T06:51:27;16.90;99.90
23283;DHT22;11810;51.178;3.878;2022-09-09T06:53:55;16.80;99.90
23283;DHT22;11810;51.178;3.878;2022-09-09T06:58:50;16.80;99.90
23283;DHT22;11810;51.178;3.878;2022-09-09T07:01:20;16.80;99.90
23283;DHT22;11810;51.178;3.878;2022-09-09T07:03:48;16.90;99.90
23283;DHT22;11810;51.178;3.878;2022-09-09T07:06:18;17.00;99.90
23283;DHT22;11810;51.178;3.878;2022-09-09T07:08:52;16.90;99.90
23283;DHT22;11810;51.178;3.878;2022-09-09T07:11:19;17.10;99.90
23283;DHT22;11810;51.178;3.878;2022-09-09T07:13:46;17.60;99.90
23283;DHT22;11810;51.178;3.878;2022-09-09T07:16:15;18.00;99.90
23283;DHT22;11810;51.178;3.878;2022-09-09T07:18:41;18.20;99.90
23283;DHT22;11810;51.178;3.878;2022-09-09T07:21:08;18.80;99.90
23283;DHT22;11810;51.178;3.878;2022-09-09T07:23:34;19.40;99.90
23283;DHT22;11810;51.178;3.878;2022-09-09T07:26:12;19.90;99.90
23283;DHT22;11810;51.178;3.878;2022-09-09T07:28:39;20.20;99.90
23283;DHT22;11810;51.178;3.878;2022-09-09T07:31:06;20.30;99.90
23283;DHT22;11810;51.178;3.878;2022-09-09T07:33:33;20.10;99.90
23283;DHT22;11810;51.178;3.878;2022-09-09T07:36:16;19.70;99.90
23283;DHT22;11810;51.178;3.878;2022-09-09T07:38:48;19.40;99.90
23283;DHT22;11810;51.178;3.878;2022-09-09T07:41:39;19.30;99.90
23283;DHT22;11810;51.178;3.878;2022-09-09T07:44:07;18.90;99.90
23283;DHT22;11810;51.178;3.878;2022-09-09T07:46:34;19.00;99.90
23283;DHT22;11810;51.178;3.878;2022-09-09T07:49:01;19.00;99.90
23283;DHT22;11810;51.178;3.878;2022-09-09T07:51:30;19.60;99.90
23283;DHT22;11810;51.178;3.878;2022-09-09T07:54:02;19.60;99.90
23283;DHT22;11810;51.178;3.878;2022-09-09T07:56:29;19.70;99.90
23283;DHT22;11810;51.178;3.878;2022-09-09T07:58:56;19.70;99.90
23283;DHT22;11810;51.178;3.878;2022-09-09T08:01:28;20.00;99.90
23283;DHT22;11810;51.178;3.878;2022-09-09T08:04:01;20.40;99.90
23283;DHT22;11810;51.178;3.878;2022-09-09T08:06:29;20.30;99.90
23283;DHT22;11810;51.178;3.878;2022-09-09T08:08:55;20.10;99.90
23283;DHT22;11810;51.178;3.878;2022-09-09T08:11:23;19.80;99.90
23283;DHT22;11810;51.178;3.878;2022-09-09T08:13:50;19.40;99.90
23283;DHT22;11810;51.178;3.878;2022-09-09T08:16:20;19.30;99.90
23283;DHT22;11810;51.178;3.878;2022-09-09T08:18:48;19.00;99.90
23283;DHT22;11810;51.178;3.878;2022-09-09T08:21:17;18.70;99.90
23283;DHT22;11810;51.178;3.878;2022-09-09T08:23:45;18.40;99.90
23283;DHT22;11810;51.178;3.878;2022-09-09T08:26:27;18.30;99.90
23283;DHT22;11810;51.178;3.878;2022-09-09T08:28:56;18.10;99.90
23283;DHT22;11810;51.178;3.878;2022-09-09T08:31:24;18.20;99.90
23283;DHT22;11810;51.178;3.878;2022-09-09T08:33:50;18.20;99.90
23283;DHT22;11810;51.178;3.878;2022-09-09T08:36:19;18.10;99.90
23283;DHT22;11810;51.178;3.878;2022-09-09T08:38:50;18.00;99.90
23283;DHT22;11810;51.178;3.878;2022-09-09T08:41:23;17.90;99.90
23283;DHT22;11810;51.178;3.878;2022-09-09T08:44:04;17.90;99.90
23283;DHT22;11810;51.178;3.878;2022-09-09T08:47:01;17.80;99.90
23283;DHT22;11810;51.178;3.878;2022-09-09T08:52:17;17.60;99.90
23283;DHT22;11810;51.178;3.878;2022-09-09T08:54:45;17.60;99.90
23283;DHT22;11810;51.178;3.878;2022-09-09T08:57:16;17.50;99.90
23283;DHT22;11810;51.178;3.878;2022-09-09T08:59:43;17.50;99.90
23283;DHT22;11810;51.178;3.878;2022-09-09T09:02:26;17.50;99.90
23283;DHT22;11810;51.178;3.878;2022-09-09T09:12:56;17.40;99.90
23283;DHT22;11810;51.178;3.878;2022-09-09T09:15:30;17.40;99.90
23283;DHT22;11810;51.178;3.878;2022-09-09T09:17:56;17.40;99.90
23283;DHT22;11810;51.178;3.878;2022-09-09T09:20:50;17.50;99.90
23283;DHT22;11810;51.178;3.878;2022-09-09T09:23:25;17.60;99.90
23283;DHT22;11810;51.178;3.878;2022-09-09T09:25:59;17.70;99.90
23283;DHT22;11810;51.178;3.878;2022-09-09T09:28:29;17.60;99.90
23283;DHT22;11810;51.178;3.878;2022-09-09T09:31:09;17.40;99.90
23283;DHT22;11810;51.178;3.878;2022-09-09T09:33:52;17.40;99.90
23283;DHT22;11810;51.178;3.878;2022-09-09T09:36:20;17.30;99.90
23283;DHT22;11810;51.178;3.878;2022-09-09T09:39:00;17.30;99.90
23283;DHT22;11810;51.178;3.878;2022-09-09T09:41:40;17.60;99.90
23283;DHT22;11810;51.178;3.878;2022-09-09T09:44:28;18.00;99.90
23283;DHT22;11810;51.178;3.878;2022-09-09T09:47:12;18.20;99.90
23283;DHT22;11810;51.178;3.878;2022-09-09T09:49:39;18.20;99.90
23283;DHT22;11810;51.178;3.878;2022-09-09T09:52:06;18.20;99.90
23283;DHT22;11810;51.178;3.878;2022-09-09T09:54:41;18.40;99.90
23283;DHT22;11810;51.178;3.878;2022-09-09T09:57:09;18.60;99.90
23283;DHT22;11810;51.178;3.878;2022-09-09T09:59:37;18.60;99.90
23283;DHT22;11810;51.178;3.878;2022-09-09T10:02:24;18.70;99.90
23283;DHT22;11810;51.178;3.878;2022-09-09T10:05:08;18.60;99.90
23283;DHT22;11810;51.178;3.878;2022-09-09T10:07:37;18.70;99.90
23283;DHT22;11810;51.178;3.878;2022-09-09T10:10:05;18.50;99.90
23283;DHT22;11810;51.178;3.878;2022-09-09T10:13:04;18.40;99.90
23283;DHT22;11810;51.178;3.878;2022-09-09T10:18:49;18.10;99.90
23283;DHT22;11810;51.178;3.878;2022-09-09T10:21:32;18.40;99.90
23283;DHT22;11810;51.178;3.878;2022-09-09T10:27:05;18.20;99.90
23283;DHT22;11810;51.178;3.878;2022-09-09T10:30:03;18.20;99.90
23283;DHT22;11810;51.178;3.878;2022-09-09T10:32:38;18.20;99.90
23283;DHT22;11810;51.178;3.878;2022-09-09T10:35:12;18.40;99.90
23283;DHT22;11810;51.178;3.878;2022-09-09T10:41:05;18.70;99.90
23283;DHT22;11810;51.178;3.878;2022-09-09T11:00:03;20.20;99.90
23283;DHT22;11810;51.178;3.878;2022-09-09T11:02:33;19.90;99.90
23283;DHT22;11810;51.178;3.878;2022-09-09T11:05:10;20.10;99.90
23283;DHT22;11810;51.178;3.878;2022-09-09T11:10:26;20.30;99.90
23283;DHT22;11810;51.178;3.878;2022-09-09T11:13:01;20.00;99.90
23283;DHT22;11810;51.178;3.878;2022-09-09T11:15:40;19.60;99.90
23283;DHT22;11810;51.178;3.878;2022-09-09T11:18:13;19.40;99.90
23283;DHT22;11810;51.178;3.878;2022-09-09T11:20:39;19.60;99.90
23283;DHT22;11810;51.178;3.878;2022-09-09T11:23:13;19.60;99.90
23283;DHT22;11810;51.178;3.878;2022-09-09T11:26:02;20.00;99.90
23283;DHT22;11810;51.178;3.878;2022-09-09T11:31:46;20.00;99.90
23283;DHT22;11810;51.178;3.878;2022-09-09T11:40:14;20.80;99.90
23283;DHT22;11810;51.178;3.878;2022-09-09T11:42:42;20.90;99.90
23283;DHT22;11810;51.178;3.878;2022-09-09T11:45:20;20.90;99.90
23283;DHT22;11810;51.178;3.878;2022-09-09T11:48:00;20.90;99.90
23283;DHT22;11810;51.178;3.878;2022-09-09T11:53:24;20.60;99.90
23283;DHT22;11810;51.178;3.878;2022-09-09T11:56:12;20.80;99.90
23283;DHT22;11810;51.178;3.878;2022-09-09T11:58:57;20.80;99.90
23283;DHT22;11810;51.178;3.878;2022-09-09T12:05:08;20.60;99.90
23283;DHT22;11810;51.178;3.878;2022-09-09T12:09:47;20.40;99.90
23283;DHT22;11810;51.178;3.878;2022-09-09T12:17:45;20.30;99.90
23283;DHT22;11810;51.178;3.878;2022-09-09T12:20:34;20.20;99.90
23283;DHT22;11810;51.178;3.878;2022-09-09T12:31:12;20.80;99.90
23283;DHT22;11810;51.178;3.878;2022-09-09T12:33:44;20.60;99.90
23283;DHT22;11810;51.178;3.878;2022-09-09T12:36:37;20.80;99.90
23283;DHT22;11810;51.178;3.878;2022-09-09T12:39:24;21.00;99.90
23283;DHT22;11810;51.178;3.878;2022-09-09T12:41:54;20.70;99.90
23283;DHT22;11810;51.178;3.878;2022-09-09T12:44:23;20.80;99.90
23283;DHT22;11810;51.178;3.878;2022-09-09T12:46:50;21.10;99.90
23283;DHT22;11810;51.178;3.878;2022-09-09T12:49:34;21.60;99.90
23283;DHT22;11810;51.178;3.878;2022-09-09T12:52:21;21.40;99.90
23283;DHT22;11810;51.178;3.878;2022-09-09T12:54:49;21.30;99.90
23283;DHT22;11810;51.178;3.878;2022-09-09T12:57:21;20.40;99.90
23283;DHT22;11810;51.178;3.878;2022-09-09T12:59:48;19.90;99.90
23283;DHT22;11810;51.178;3.878;2022-09-09T13:02:25;19.70;99.90
23283;DHT22;11810;51.178;3.878;2022-09-09T13:04:52;19.50;99.90
23283;DHT22;11810;51.178;3.878;2022-09-09T13:07:20;19.30;99.90
23283;DHT22;11810;51.178;3.878;2022-09-09T13:09:48;19.30;99.90
23283;DHT22;11810;51.178;3.878;2022-09-09T13:12:18;19.10;99.90
23283;DHT22;11810;51.178;3.878;2022-09-09T13:14:53;18.90;99.90
23283;DHT22;11810;51.178;3.878;2022-09-09T13:17:24;19.00;99.90
23283;DHT22;11810;51.178;3.878;2022-09-09T13:19:52;19.40;99.90
23283;DHT22;11810;51.178;3.878;2022-09-09T13:22:31;19.60;99.90
23283;DHT22;11810;51.178;3.878;2022-09-09T13:27:41;19.70;99.90
23283;DHT22;11810;51.178;3.878;2022-09-09T13:30:31;19.50;99.90
23283;DHT22;11810;51.178;3.878;2022-09-09T13:36:10;19.10;99.90
23283;DHT22;11810;51.178;3.878;2022-09-09T13:41:33;19.30;99.90
23283;DHT22;11810;51.178;3.878;2022-09-09T13:44:00;19.40;99.90
23283;DHT22;11810;51.178;3.878;2022-09-09T13:46:38;19.50;99.90
23283;DHT22;11810;51.178;3.878;2022-09-09T13:51:42;19.50;99.90
23283;DHT22;11810;51.178;3.878;2022-09-09T13:54:10;19.50;99.90
23283;DHT22;11810;51.178;3.878;2022-09-09T13:56:37;19.40;99.90
23283;DHT22;11810;51.178;3.878;2022-09-09T13:59:09;19.40;99.90
23283;DHT22;11810;51.178;3.878;2022-09-09T14:01:36;19.50;99.90
23283;DHT22;11810;51.178;3.878;2022-09-09T14:04:03;19.40;99.90
23283;DHT22;11810;51.178;3.878;2022-09-09T14:06:30;19.00;99.90
23283;DHT22;11810;51.178;3.878;2022-09-09T14:08:58;18.50;99.90
23283;DHT22;11810;51.178;3.878;2022-09-09T14:11:24;18.40;99.90
23283;DHT22;11810;51.178;3.878;2022-09-09T14:13:50;18.10;99.90
23283;DHT22;11810;51.178;3.878;2022-09-09T14:16:17;17.90;99.90
23283;DHT22;11810;51.178;3.878;2022-09-09T14:18:44;17.80;99.90
23283;DHT22;11810;51.178;3.878;2022-09-09T14:21:11;17.80;99.90
23283;DHT22;11810;51.178;3.878;2022-09-09T14:23:38;17.80;99.90
23283;DHT22;11810;51.178;3.878;2022-09-09T14:26:07;17.80;99.90
23283;DHT22;11810;51.178;3.878;2022-09-09T14:28:35;18.00;99.90
23283;DHT22;11810;51.178;3.878;2022-09-09T14:31:02;18.20;99.90
23283;DHT22;11810;51.178;3.878;2022-09-09T14:33:28;18.60;99.90
23283;DHT22;11810;51.178;3.878;2022-09-09T14:36:01;19.00;99.90
23283;DHT22;11810;51.178;3.878;2022-09-09T14:38:35;19.40;99.90
23283;DHT22;11810;51.178;3.878;2022-09-09T14:41:10;19.30;99.90
23283;DHT22;11810;51.178;3.878;2022-09-09T14:43:38;19.20;99.90
23283;DHT22;11810;51.178;3.878;2022-09-09T14:46:06;19.00;99.90
23283;DHT22;11810;51.178;3.878;2022-09-09T14:48:32;18.90;99.90
23283;DHT22;11810;51.178;3.878;2022-09-09T14:51:16;18.50;99.90
23283;DHT22;11810;51.178;3.878;2022-09-09T14:53:44;18.30;99.90
23283;DHT22;11810;51.178;3.878;2022-09-09T14:56:12;18.00;99.90
23283;DHT22;11810;51.178;3.878;2022-09-09T14:58:38;17.80;99.90
23283;DHT22;11810;51.178;3.878;2022-09-09T15:01:13;17.80;99.90
23283;DHT22;11810;51.178;3.878;2022-09-09T15:03:40;17.70;99.90
23283;DHT22;11810;51.178;3.878;2022-09-09T15:06:08;17.60;99.90
23283;DHT22;11810;51.178;3.878;2022-09-09T15:08:39;17.70;99.90
23283;DHT22;11810;51.178;3.878;2022-09-09T15:11:06;18.10;99.90
23283;DHT22;11810;51.178;3.878;2022-09-09T15:13:36;18.80;99.90
23283;DHT22;11810;51.178;3.878;2022-09-09T15:16:14;19.10;99.90
23283;DHT22;11810;51.178;3.878;2022-09-09T15:18:40;19.40;99.90
23283;DHT22;11810;51.178;3.878;2022-09-09T15:21:12;19.70;99.90
23283;DHT22;11810;51.178;3.878;2022-09-09T15:23:38;20.00;99.90
23283;DHT22;11810;51.178;3.878;2022-09-09T15:26:05;19.90;99.90
23283;DHT22;11810;51.178;3.878;2022-09-09T15:28:35;19.60;99.90
23283;DHT22;11810;51.178;3.878;2022-09-09T15:31:20;19.70;99.90
23283;DHT22;11810;51.178;3.878;2022-09-09T15:33:51;19.60;99.90
23283;DHT22;11810;51.178;3.878;2022-09-09T15:36:24;19.70;99.90
23283;DHT22;11810;51.178;3.878;2022-09-09T15:38:51;19.70;99.90
23283;DHT22;11810;51.178;3.878;2022-09-09T15:41:18;19.50;99.90
23283;DHT22;11810;51.178;3.878;2022-09-09T15:43:47;19.40;99.90
23283;DHT22;11810;51.178;3.878;2022-09-09T15:48:43;19.40;99.90
23283;DHT22;11810;51.178;3.878;2022-09-09T15:51:10;19.40;99.90
23283;DHT22;11810;51.178;3.878;2022-09-09T15:53:37;19.20;99.90
23283;DHT22;11810;51.178;3.878;2022-09-09T15:56:05;19.10;99.90
23283;DHT22;11810;51.178;3.878;2022-09-09T15:58:35;18.90;99.90
23283;DHT22;11810;51.178;3.878;2022-09-09T16:01:09;18.80;99.90
23283;DHT22;11810;51.178;3.878;2022-09-09T16:03:36;18.60;99.90
23283;DHT22;11810;51.178;3.878;2022-09-09T16:06:03;18.60;99.90
23283;DHT22;11810;51.178;3.878;2022-09-09T16:08:41;18.60;99.90
23283;DHT22;11810;51.178;3.878;2022-09-09T16:11:08;18.50;99.90
23283;DHT22;11810;51.178;3.878;2022-09-09T16:13:38;18.50;99.90
23283;DHT22;11810;51.178;3.878;2022-09-09T16:16:06;18.40;99.90
23283;DHT22;11810;51.178;3.878;2022-09-09T16:18:53;18.40;99.90
23283;DHT22;11810;51.178;3.878;2022-09-09T16:21:31;18.60;99.90
23283;DHT22;11810;51.178;3.878;2022-09-09T16:23:59;18.50;99.90
23283;DHT22;11810;51.178;3.878;2022-09-09T16:26:26;18.40;99.90
23283;DHT22;11810;51.178;3.878;2022-09-09T16:28:53;18.40;99.90
23283;DHT22;11810;51.178;3.878;2022-09-09T16:31:21;18.40;99.90
23283;DHT22;11810;51.178;3.878;2022-09-09T16:33:48;18.40;99.90
23283;DHT22;11810;51.178;3.878;2022-09-09T16:36:21;18.50;99.90
23283;DHT22;11810;51.178;3.878;2022-09-09T16:38:48;18.40;99.90
23283;DHT22;11810;51.178;3.878;2022-09-09T16:41:14;18.40;99.90
23283;DHT22;11810;51.178;3.878;2022-09-09T16:43:41;18.30;99.90
23283;DHT22;11810;51.178;3.878;2022-09-09T16:46:18;18.10;99.90
23283;DHT22;11810;51.178;3.878;2022-09-09T16:48:46;18.10;99.90
23283;DHT22;11810;51.178;3.878;2022-09-09T16:51:17;18.00;99.90
23283;DHT22;11810;51.178;3.878;2022-09-09T16:53:43;18.00;99.90
23283;DHT22;11810;51.178;3.878;2022-09-09T16:56:15;17.90;99.90
23283;DHT22;11810;51.178;3.878;2022-09-09T16:58:42;17.80;99.90
23283;DHT22;11810;51.178;3.878;2022-09-09T17:01:09;17.70;99.90
23283;DHT22;11810;51.178;3.878;2022-09-09T17:03:37;17.50;99.90
23283;DHT22;11810;51.178;3.878;2022-09-09T17:06:03;17.30;99.90
23283;DHT22;11810;51.178;3.878;2022-09-09T17:08:34;17.20;99.90
23283;DHT22;11810;51.178;3.878;2022-09-09T17:10:59;17.00;99.90
23283;DHT22;11810;51.178;3.878;2022-09-09T17:13:25;17.00;99.90
23283;DHT22;11810;51.178;3.878;2022-09-09T17:15:52;17.10;99.90
23283;DHT22;11810;51.178;3.878;2022-09-09T17:18:18;17.20;99.90
23283;DHT22;11810;51.178;3.878;2022-09-09T17:20:44;17.30;99.90
23283;DHT22;11810;51.178;3.878;2022-09-09T17:23:11;17.40;99.90
23283;DHT22;11810;51.178;3.878;2022-09-09T17:25:41;17.40;99.90
23283;DHT22;11810;51.178;3.878;2022-09-09T17:28:07;17.40;99.90
23283;DHT22;11810;51.178;3.878;2022-09-09T17:30:36;17.40;99.90
23283;DHT22;11810;51.178;3.878;2022-09-09T17:33:03;17.50;99.90
23283;DHT22;11810;51.178;3.878;2022-09-09T17:35:30;17.40;99.90
23283;DHT22;11810;51.178;3.878;2022-09-09T17:37:56;17.30;99.90
23283;DHT22;11810;51.178;3.878;2022-09-09T17:40:23;17.30;99.90
23283;DHT22;11810;51.178;3.878;2022-09-09T17:42:49;17.30;99.90
23283;DHT22;11810;51.178;3.878;2022-09-09T17:45:15;17.30;99.90
23283;DHT22;11810;51.178;3.878;2022-09-09T17:47:42;17.20;99.90
23283;DHT22;11810;51.178;3.878;2022-09-09T17:50:09;17.30;99.90
23283;DHT22;11810;51.178;3.878;2022-09-09T17:52:36;17.30;99.90
23283;DHT22;11810;51.178;3.878;2022-09-09T17:55:04;17.30;99.90
23283;DHT22;11810;51.178;3.878;2022-09-09T17:57:30;17.50;99.90